Time;durP1;ratioP1;P1;durP2;ratioP2;P2;SDS_P1;SDS_P2;PMS_P1;PMS_P2;Temp;Humidity;BMP_temperature;BMP_pressure;BME280_temperature;BME280_humidity;BME280_pressure;Samples;Min_cycle;Max_cycle;Signal;HPM_P1;HPM_P2
2023/10/09 00:02:48;;;;;;;;;;;15.10;99.90;;;;;;6734479;88;20163;-79
2023/10/09 00:12:49;;;;;;;;;;;15.40;99.90;;;;;;6734490;88;20091;-79
2023/10/09 00:22:51;;;;;;;;;;;15.50;99.90;;;;;;6733846;88;20082;-79
2023/10/09 00:33:07;;;;;;;;;;;15.50;99.90;;;;;;6729078;88;20072;-80
2023/10/09 00:43:13;;;;;;;;;;;15.60;99.90;;;;;;6730717;88;20067;-81
2023/10/09 00:53:18;;;;;;;;;;;15.40;99.90;;;;;;6732354;88;20507;-81
2023/10/09 01:03:20;;;;;;;;;;;15.40;99.90;;;;;;6730407;88;20209;-80
2023/10/09 01:13:20;;;;;;;;;;;15.20;99.90;;;;;;6732791;88;20068;-80
2023/10/09 01:23:21;;;;;;;;;;;15.10;99.90;;;;;;6735280;88;20911;-79
2023/10/09 01:33:24;;;;;;;;;;;14.90;99.90;;;;;;6730760;88;20557;-80
2023/10/09 01:43:25;;;;;;;;;;;14.80;99.90;;;;;;6730939;88;20068;-80
2023/10/09 01:53:29;;;;;;;;;;;14.70;99.90;;;;;;6733102;88;20110;-80
2023/10/09 02:03:30;;;;;;;;;;;14.70;99.90;;;;;;6732046;88;20050;-80
2023/10/09 02:13:34;;;;;;;;;;;14.80;99.90;;;;;;6732237;88;20588;-80
2023/10/09 02:33:42;;;;;;;;;;;14.80;99.90;;;;;;6734626;88;20068;-80
2023/10/09 02:43:50;;;;;;;;;;;14.80;99.90;;;;;;6733033;88;20067;-81
2023/10/09 02:53:51;;;;;;;;;;;14.70;99.90;;;;;;6740280;88;20232;-80
2023/10/09 03:03:52;;;;;;;;;;;14.80;99.90;;;;;;6732192;88;20059;-81
2023/10/09 03:13:54;;;;;;;;;;;14.70;99.90;;;;;;6736203;88;20088;-80
2023/10/09 03:23:56;;;;;;;;;;;14.50;99.90;;;;;;6735963;88;20182;-81
2023/10/09 03:33:57;;;;;;;;;;;14.60;99.90;;;;;;6736217;88;20085;-80
2023/10/09 03:44:18;;;;;;;;;;;14.50;99.90;;;;;;6738588;77;20065;-83
2023/10/09 03:54:22;;;;;;;;;;;14.40;99.90;;;;;;6748590;88;20816;-81
2023/10/09 04:04:23;;;;;;;;;;;14.30;99.90;;;;;;6751316;88;20059;-81
2023/10/09 04:14:24;;;;;;;;;;;14.40;99.90;;;;;;6714402;88;20032;-82
2023/10/09 04:24:25;;;;;;;;;;;14.40;99.90;;;;;;6714416;88;20780;-82
2023/10/09 04:34:28;;;;;;;;;;;14.30;99.90;;;;;;6714517;88;20051;-81
2023/10/09 04:44:35;;;;;;;;;;;14.40;99.90;;;;;;6742496;88;20347;-82
2023/10/09 04:54:43;;;;;;;;;;;14.40;99.90;;;;;;6749937;88;20065;-83
2023/10/09 05:04:47;;;;;;;;;;;14.40;99.90;;;;;;6749828;88;20050;-82
2023/10/09 05:15:07;;;;;;;;;;;14.50;99.90;;;;;;6749727;88;20015;-82
2023/10/09 05:25:15;;;;;;;;;;;14.40;99.90;;;;;;6748590;88;20077;-84
2023/10/09 05:35:16;;;;;;;;;;;14.30;99.90;;;;;;6726295;88;20930;-82
2023/10/09 06:06:01;;;;;;;;;;;14.30;99.90;;;;;;6727494;88;20040;-82
2023/10/09 06:16:19;;;;;;;;;;;14.50;99.90;;;;;;6732926;88;20059;-84
2023/10/09 06:26:26;;;;;;;;;;;14.50;99.90;;;;;;6752139;88;20794;-83
2023/10/09 06:36:31;;;;;;;;;;;14.60;99.90;;;;;;6741198;88;20091;-86
2023/10/09 06:46:43;;;;;;;;;;;14.50;99.90;;;;;;6751883;88;20030;-83
2023/10/09 07:06:56;;;;;;;;;;;15.00;99.90;;;;;;6698628;89;20720;-80
2023/10/09 07:27:51;;;;;;;;;;;15.50;99.90;;;;;;6727894;88;20043;-79
2023/10/09 07:37:51;;;;;;;;;;;15.80;99.90;;;;;;6732301;88;20020;-80
2023/10/09 07:48:05;;;;;;;;;;;16.00;99.90;;;;;;6733981;88;20044;-80
2023/10/09 07:58:10;;;;;;;;;;;16.40;99.90;;;;;;6734089;88;20038;-81
2023/10/09 08:08:39;;;;;;;;;;;16.80;99.90;;;;;;6733926;88;20039;-80
2023/10/09 08:18:44;;;;;;;;;;;16.90;99.90;;;;;;6748731;88;20035;-81
2023/10/09 08:28:45;;;;;;;;;;;16.90;99.90;;;;;;6748880;88;20056;-81
2023/10/09 08:38:46;;;;;;;;;;;17.20;99.90;;;;;;6745302;88;21104;-80
2023/10/09 08:48:47;;;;;;;;;;;17.50;99.90;;;;;;6736407;88;20059;-81
2023/10/09 08:58:52;;;;;;;;;;;17.60;99.90;;;;;;6730873;88;20078;-82
2023/10/09 09:08:59;;;;;;;;;;;17.90;99.90;;;;;;6732697;88;20035;-81
2023/10/09 09:19:02;;;;;;;;;;;18.10;99.90;;;;;;6732808;88;20074;-81
2023/10/09 09:29:07;;;;;;;;;;;18.30;99.90;;;;;;6730250;88;20039;-81
2023/10/09 09:49:19;;;;;;;;;;;19.20;99.90;;;;;;6753018;88;20123;-80
2023/10/09 09:59:27;;;;;;;;;;;19.90;99.90;;;;;;6745549;88;20060;-80
2023/10/09 10:09:41;;;;;;;;;;;20.20;99.90;;;;;;6746807;88;20063;-79
2023/10/09 10:20:25;;;;;;;;;;;21.40;99.90;;;;;;6741351;88;20042;-79
2023/10/09 10:30:30;;;;;;;;;;;21.60;99.90;;;;;;6744195;88;20248;-80
2023/10/09 10:40:57;;;;;;;;;;;23.00;99.90;;;;;;6745148;88;20119;-80
2023/10/09 10:50:57;;;;;;;;;;;24.10;99.90;;;;;;6738271;88;20111;-81
2023/10/09 11:11:15;;;;;;;;;;;24.90;99.90;;;;;;6742161;88;20053;-78
2023/10/09 11:31:16;;;;;;;;;;;26.00;99.80;;;;;;6722389;88;20640;-79
2023/10/09 11:41:23;;;;;;;;;;;26.40;99.10;;;;;;6726416;88;20089;-78
2023/10/09 11:51:24;;;;;;;;;;;26.70;97.80;;;;;;6725942;88;20051;-78
2023/10/09 12:01:26;;;;;;;;;;;26.10;99.70;;;;;;6734885;88;20497;-78
2023/10/09 12:11:31;;;;;;;;;;;25.60;99.90;;;;;;6738951;88;20075;-78
2023/10/09 12:21:31;;;;;;;;;;;25.60;99.90;;;;;;6722353;88;20087;-78
2023/10/09 12:31:33;;;;;;;;;;;25.70;99.90;;;;;;6733071;88;20541;-80
2023/10/09 12:41:35;;;;;;;;;;;25.50;99.90;;;;;;6740852;88;20070;-80
2023/10/09 12:51:36;;;;;;;;;;;25.70;99.30;;;;;;6743127;88;20053;-79
2023/10/09 13:01:42;;;;;;;;;;;25.80;98.10;;;;;;6739633;88;20104;-79
2023/10/09 13:11:43;;;;;;;;;;;25.60;98.50;;;;;;6735313;88;20053;-80
2023/10/09 13:21:44;;;;;;;;;;;25.50;98.50;;;;;;6739914;88;20060;-79
2023/10/09 13:31:47;;;;;;;;;;;25.10;98.40;;;;;;6740979;88;20086;-79
2023/10/09 13:41:49;;;;;;;;;;;24.70;98.80;;;;;;6737814;88;20552;-79
2023/10/09 13:51:50;;;;;;;;;;;24.50;99.10;;;;;;6741058;88;20065;-79
2023/10/09 14:01:51;;;;;;;;;;;24.40;99.30;;;;;;6739911;88;20072;-79
2023/10/09 14:11:52;;;;;;;;;;;24.10;98.90;;;;;;6732812;88;20261;-79
2023/10/09 14:21:53;;;;;;;;;;;24.00;99.10;;;;;;6742443;88;20051;-80
2023/10/09 14:32:00;;;;;;;;;;;23.90;98.50;;;;;;6738335;88;20116;-80
2023/10/09 14:42:09;;;;;;;;;;;23.90;98.60;;;;;;6745133;88;20564;-79
2023/10/09 14:52:10;;;;;;;;;;;24.00;98.20;;;;;;6747825;88;20116;-81
2023/10/09 15:02:12;;;;;;;;;;;24.10;98.50;;;;;;6745490;88;20571;-81
2023/10/09 15:12:12;;;;;;;;;;;23.90;98.40;;;;;;6761302;88;20059;-78
2023/10/09 15:22:13;;;;;;;;;;;23.60;98.70;;;;;;6736496;88;20073;-81
2023/10/09 15:32:15;;;;;;;;;;;23.50;99.20;;;;;;6746732;88;20144;-84
2023/10/09 15:42:16;;;;;;;;;;;23.50;99.30;;;;;;6756139;88;20069;-82
2023/10/09 15:52:18;;;;;;;;;;;23.20;99.70;;;;;;6771295;88;20061;-80
2023/10/09 16:02:18;;;;;;;;;;;22.70;99.90;;;;;;6763829;88;20569;-80
2023/10/09 16:12:18;;;;;;;;;;;22.50;99.90;;;;;;6766380;88;20029;-79
2023/10/09 16:22:19;;;;;;;;;;;22.20;99.90;;;;;;6760049;88;20053;-80
2023/10/09 16:32:23;;;;;;;;;;;21.80;99.90;;;;;;6758676;88;20037;-79
2023/10/09 16:42:24;;;;;;;;;;;21.30;99.90;;;;;;6760303;88;20043;-80
2023/10/09 16:52:24;;;;;;;;;;;21.00;99.90;;;;;;6755952;88;20444;-83
2023/10/09 17:02:27;;;;;;;;;;;20.70;99.90;;;;;;6750689;88;20067;-81
2023/10/09 17:12:28;;;;;;;;;;;20.50;99.90;;;;;;6781830;88;20032;-83
2023/10/09 17:22:28;;;;;;;;;;;20.30;99.90;;;;;;6780048;88;20083;-81
2023/10/09 17:32:29;;;;;;;;;;;20.20;99.90;;;;;;6782620;88;20121;-84
2023/10/09 17:42:29;;;;;;;;;;;20.10;99.90;;;;;;6774785;88;20076;-81
2023/10/09 17:52:33;;;;;;;;;;;19.90;99.90;;;;;;6761606;88;20668;-80
2023/10/09 18:02:35;;;;;;;;;;;19.60;99.90;;;;;;6781932;88;20029;-81
2023/10/09 18:12:36;;;;;;;;;;;19.40;99.90;;;;;;6786625;88;20105;-82
2023/10/09 18:22:36;;;;;;;;;;;19.20;99.90;;;;;;6786722;88;20063;-83
2023/10/09 18:32:40;;;;;;;;;;;18.90;99.90;;;;;;6782392;88;20057;-82
2023/10/09 18:42:40;;;;;;;;;;;18.60;99.90;;;;;;6783417;88;20017;-80
2023/10/09 18:52:44;;;;;;;;;;;18.40;99.90;;;;;;6786663;88;20043;-81
2023/10/09 19:02:46;;;;;;;;;;;18.20;99.90;;;;;;6785295;88;20088;-82
2023/10/09 19:12:52;;;;;;;;;;;18.00;99.90;;;;;;6785873;88;20037;-82
2023/10/09 19:22:52;;;;;;;;;;;17.90;99.90;;;;;;6784302;88;20091;-80
2023/10/09 19:32:53;;;;;;;;;;;17.80;99.90;;;;;;6784420;88;20085;-81
2023/10/09 19:42:54;;;;;;;;;;;17.70;99.90;;;;;;6784515;88;20107;-81
2023/10/09 19:52:54;;;;;;;;;;;17.50;99.90;;;;;;6784458;88;20701;-82
2023/10/09 20:02:57;;;;;;;;;;;17.40;99.90;;;;;;6781708;88;20064;-82
2023/10/09 20:12:57;;;;;;;;;;;17.20;99.90;;;;;;6781864;88;20053;-82
2023/10/09 20:23:03;;;;;;;;;;;17.10;99.90;;;;;;6785475;88;20050;-83
2023/10/09 20:33:04;;;;;;;;;;;17.00;99.90;;;;;;6750559;88;20111;-81
2023/10/09 20:43:04;;;;;;;;;;;16.80;99.90;;;;;;6750107;88;20151;-82
2023/10/09 20:53:04;;;;;;;;;;;16.70;99.90;;;;;;6750182;88;20114;-81
2023/10/09 21:03:05;;;;;;;;;;;16.40;99.90;;;;;;6750140;88;20093;-82
2023/10/09 21:13:05;;;;;;;;;;;16.40;99.90;;;;;;6750093;88;20678;-81
2023/10/09 21:23:06;;;;;;;;;;;16.30;99.90;;;;;;6750047;88;20053;-83
2023/10/09 21:33:07;;;;;;;;;;;16.10;99.90;;;;;;6749797;88;20132;-83
2023/10/09 21:43:09;;;;;;;;;;;15.80;99.90;;;;;;6764288;88;20064;-81
2023/10/09 21:53:09;;;;;;;;;;;15.70;99.90;;;;;;6760512;88;20052;-83
2023/10/09 22:03:11;;;;;;;;;;;15.40;99.90;;;;;;6762508;88;20074;-82
2023/10/09 22:13:11;;;;;;;;;;;15.40;99.90;;;;;;6764590;88;20074;-82
2023/10/09 22:23:13;;;;;;;;;;;15.10;99.90;;;;;;6753034;88;20113;-82
2023/10/09 22:33:19;;;;;;;;;;;15.00;99.90;;;;;;6759278;88;20852;-82
2023/10/09 22:43:23;;;;;;;;;;;15.10;99.90;;;;;;6754925;88;20951;-83
2023/10/09 22:53:37;;;;;;;;;;;15.00;99.90;;;;;;6753477;88;20149;-82
2023/10/09 23:03:42;;;;;;;;;;;14.90;99.90;;;;;;6735454;88;20066;-81
2023/10/09 23:13:52;;;;;;;;;;;14.60;99.90;;;;;;6735524;88;20081;-81
2023/10/09 23:24:08;;;;;;;;;;;14.30;99.90;;;;;;6740594;88;20102;-84
2023/10/09 23:34:09;;;;;;;;;;;14.20;99.90;;;;;;6751616;88;20112;-80
2023/10/09 23:44:10;;;;;;;;;;;14.30;99.90;;;;;;6752660;88;20184;-80
2023/10/09 23:54:11;;;;;;;;;;;14.30;99.90;;;;;;6757074;88;20131;-80
